This is the latest recevied weather packets stored in our database for station/object M0XDC. If no packets are shown the sender has not sent any weather packets the latest 10 day(s).
| Time | Temp. | Humidity | Pressure | Rain* | Wind** | Luminosity | Snow |
|---|---|---|---|---|---|---|---|
| 1778039074 | 7.22° C | 82% | 1010.1 hPa | 0 mm | - | - | - |
| 1778037274 | 7.78° C | 80% | 1009.9 hPa | 0 mm | - | - | - |
| 1778035474 | 7.78° C | 78% | 1010.4 hPa | 0 mm | - | - | - |
| 1778033674 | 8.33° C | 79% | 1010.4 hPa | 0 mm | - | - | - |
| 1778031874 | 8.33° C | 82% | 1010.5 hPa | 0 mm | - | - | - |
| 1778030074 | 8.33° C | 82% | 1010.4 hPa | 0 mm | - | - | - |
| 1778028274 | 8.33° C | 82% | 1010.6 hPa | 0 mm | - | - | - |
| 1778026474 | 8.33° C | 81% | 1010.6 hPa | 0 mm | - | - | - |
| 1778024674 | 8.89° C | 81% | 1010.7 hPa | 0 mm | - | - | - |
| 1778022873 | 8.89° C | 81% | 1010.9 hPa | 0 mm | - | - | - |
| 1778021074 | 9.44° C | 80% | 1010.8 hPa | 0 mm | - | - | - |
| 1778019274 | 9.44° C | 80% | 1011.1 hPa | 0 mm | - | - | - |
| 1778017474 | 10° C | 78% | 1010.8 hPa | 0 mm | - | - | - |
| 1778015674 | 10° C | 84% | 1010.6 hPa | 0 mm | - | - | - |
| 1778013873 | 10° C | 84% | 1010.8 hPa | 0 mm | - | - | - |
| 1778012074 | 11.11° C | 77% | 1010.6 hPa | 0 mm | - | - | - |
| 1778010274 | 11.67° C | 69% | 1010.2 hPa | 0 mm | - | - | - |
| 1778008474 | 11.67° C | 68% | 1009.9 hPa | 0 mm | - | - | - |
| 1778006674 | 12.22° C | 66% | 1009.6 hPa | 0 mm | - | - | - |
| 1778004874 | 12.22° C | 65% | 1009.5 hPa | 0 mm | - | - | - |
| 1778003073 | 12.78° C | 63% | 1009.4 hPa | 0 mm | - | - | - |
| 1778001274 | 12.78° C | 62% | 1009.5 hPa | 0 mm | - | - | - |
| 1777999474 | 13.33° C | 63% | 1009.5 hPa | 0 mm | - | - | - |
| 1777997674 | 13.33° C | 61% | 1009.4 hPa | 0 mm | - | - | - |
| 1777995874 | 13.89° C | 57% | 1009.6 hPa | 0 mm | - | - | - |
* Rain latest hour (hover to see other rain measurements)
** Current wind speed in m/s (hover to see current wind gust speed)